Time;durP1;ratioP1;P1;durP2;ratioP2;P2;SDS_P1;SDS_P2;PMS_P1;PMS_P2;Temp;Humidity;BMP_temperature;BMP_pressure;BME280_temperature;BME280_humidity;BME280_pressure;Samples;Min_cycle;Max_cycle;Signal;HPM_P1;HPM_P2
2023/12/06 04:59:40;;;;;;;0.10;0.10;;;2.50;99.90;;;;;;5007944;28;20079;-79
2023/12/06 05:02:06;;;;;;;0.40;0.40;;;2.40;99.90;;;;;;5024654;28;20563;-78
2023/12/06 05:04:32;;;;;;;0.10;0.10;;;2.40;99.90;;;;;;5024500;28;20041;-78
2023/12/06 05:06:57;;;;;;;0.10;0.10;;;2.40;99.90;;;;;;5022843;28;20432;-78
2023/12/06 05:09:23;;;;;;;0.10;0.10;;;2.30;99.90;;;;;;5024253;28;20067;-78
2023/12/06 05:11:49;;;;;;;0.10;0.10;;;2.20;99.90;;;;;;5024437;28;20033;-77
2023/12/06 05:14:14;;;;;;;0.10;0.10;;;2.20;99.90;;;;;;5024267;28;20029;-77
2023/12/06 05:16:40;;;;;;;0.10;0.10;;;2.30;99.90;;;;;;5028576;28;20480;-77
2023/12/06 05:19:06;;;;;;;0.10;0.10;;;2.20;99.90;;;;;;5023913;28;20030;-78
2023/12/06 05:21:32;;;;;;;0.10;0.10;;;2.20;99.90;;;;;;5023544;28;20029;-78
2023/12/06 05:23:57;;;;;;;0.10;0.10;;;2.10;99.90;;;;;;5023257;28;20580;-78
2023/12/06 05:26:25;;;;;;;0.10;0.10;;;2.10;99.90;;;;;;5021711;28;20029;-78
2023/12/06 05:28:52;;;;;;;0.10;0.10;;;2.20;99.90;;;;;;5023314;28;20366;-77
2023/12/06 05:31:17;;;;;;;0.10;0.10;;;2.20;99.90;;;;;;5023797;28;20037;-78
2023/12/06 05:33:43;;;;;;;0.10;0.10;;;2.10;99.90;;;;;;5024814;28;20044;-78
2023/12/06 05:36:09;;;;;;;0.10;0.10;;;2.20;99.90;;;;;;5023232;28;20021;-78
2023/12/06 05:38:34;;;;;;;0.10;0.10;;;2.20;99.90;;;;;;5024510;28;20037;-77
2023/12/06 05:41:00;;;;;;;0.10;0.10;;;2.10;99.90;;;;;;5023989;28;20037;-77
2023/12/06 05:43:26;;;;;;;0.80;0.80;;;2.10;99.90;;;;;;5022296;28;20532;-76
2023/12/06 05:45:52;;;;;;;0.10;0.10;;;2.10;99.90;;;;;;5022935;28;20026;-77
2023/12/06 05:48:17;;;;;;;0.15;0.15;;;2.00;99.90;;;;;;5023035;28;20059;-77
2023/12/06 05:50:43;;;;;;;0.10;0.10;;;2.00;99.90;;;;;;5022860;28;20037;-77
2023/12/06 05:53:09;;;;;;;0.10;0.10;;;2.00;99.90;;;;;;5023007;28;20543;-77
2023/12/06 05:55:34;;;;;;;0.10;0.10;;;2.10;99.90;;;;;;5019165;28;20021;-77
2023/12/06 05:58:00;;;;;;;3.20;2.83;;;2.00;99.90;;;;;;5022358;28;20061;-77
2023/12/06 06:00:26;;;;;;;0.10;0.10;;;2.00;99.90;;;;;;5023383;28;20064;-77
2023/12/06 06:02:56;;;;;;;0.10;0.10;;;2.00;99.90;;;;;;5022652;28;20538;-76
2023/12/06 06:05:22;;;;;;;0.10;0.10;;;2.00;99.90;;;;;;5022214;28;20049;-77
2023/12/06 06:07:48;;;;;;;0.10;0.10;;;2.10;99.90;;;;;;5017367;28;20052;-77
2023/12/06 06:10:13;;;;;;;0.65;0.65;;;2.00;99.90;;;;;;5028584;28;20123;-77
2023/12/06 06:12:39;;;;;;;0.10;0.10;;;1.90;99.90;;;;;;5022318;28;20057;-77
2023/12/06 06:15:05;;;;;;;0.10;0.10;;;1.90;99.90;;;;;;5021949;28;20107;-77
2023/12/06 06:17:31;;;;;;;0.10;0.10;;;1.80;99.90;;;;;;5022629;28;20087;-77
2023/12/06 06:19:56;;;;;;;8.38;3.55;;;1.80;99.90;;;;;;5022215;28;20038;-77
2023/12/06 06:22:22;;;;;;;0.30;0.30;;;1.90;99.90;;;;;;5022534;28;20366;-77
2023/12/06 06:24:48;;;;;;;0.10;0.10;;;1.90;99.90;;;;;;5020250;28;20030;-77
2023/12/06 06:27:13;;;;;;;0.10;0.10;;;1.80;99.90;;;;;;5023964;28;20029;-77
2023/12/06 06:29:39;;;;;;;0.10;0.10;;;1.80;99.90;;;;;;5021854;28;20118;-77
2023/12/06 06:32:06;;;;;;;0.10;0.10;;;1.80;99.90;;;;;;5022104;28;20059;-79
2023/12/06 06:34:32;;;;;;;0.10;0.10;;;1.80;99.90;;;;;;5020759;28;20079;-80
2023/12/06 06:36:58;;;;;;;0.10;0.10;;;1.70;99.90;;;;;;5021550;28;20435;-80
2023/12/06 06:39:23;;;;;;;0.10;0.10;;;1.70;99.90;;;;;;5024507;28;20678;-79
2023/12/06 06:41:49;;;;;;;0.10;0.10;;;1.70;99.90;;;;;;5023530;28;20125;-81
2023/12/06 06:44:14;;;;;;;0.10;0.10;;;1.70;99.90;;;;;;5021335;28;20033;-80
2023/12/06 06:46:40;;;;;;;0.10;0.10;;;1.70;99.90;;;;;;5022003;28;20029;-80
2023/12/06 06:49:06;;;;;;;0.10;0.10;;;1.70;99.90;;;;;;5021756;28;20464;-79
2023/12/06 06:51:36;;;;;;;0.10;0.10;;;1.60;99.90;;;;;;5020459;28;20061;-78
2023/12/06 06:54:06;;;;;;;0.10;0.10;;;1.70;99.90;;;;;;5022220;28;20029;-78
2023/12/06 06:56:33;;;;;;;0.10;0.10;;;1.60;99.90;;;;;;5018494;28;20025;-79
2023/12/06 06:58:59;;;;;;;7.10;4.50;;;1.60;99.90;;;;;;5021298;28;20056;-79
2023/12/06 07:01:24;;;;;;;0.10;0.10;;;1.60;99.90;;;;;;5021984;28;20388;-78
2023/12/06 07:03:50;;;;;;;0.10;0.10;;;1.70;99.90;;;;;;5021649;28;20037;-78
2023/12/06 07:06:16;;;;;;;0.10;0.10;;;1.60;99.90;;;;;;5021729;28;20996;-77
2023/12/06 07:08:42;;;;;;;0.10;0.10;;;1.60;99.90;;;;;;5022082;28;20030;-78
2023/12/06 07:11:08;;;;;;;0.10;0.10;;;1.70;99.90;;;;;;5022133;28;20110;-80
2023/12/06 07:13:37;;;;;;;0.13;0.13;;;1.70;99.90;;;;;;5022121;28;20460;-79
2023/12/06 07:16:03;;;;;;;0.10;0.10;;;1.70;99.90;;;;;;5015716;28;20021;-79
2023/12/06 07:18:31;;;;;;;0.10;0.10;;;1.70;99.90;;;;;;5018850;28;20041;-78
2023/12/06 07:21:00;;;;;;;0.10;0.10;;;1.70;99.90;;;;;;5025950;28;20037;-78
2023/12/06 07:23:26;;;;;;;0.08;0.08;;;1.80;99.90;;;;;;5012780;28;20040;-78
2023/12/06 07:25:53;;;;;;;0.10;0.10;;;1.80;99.90;;;;;;5017968;28;20022;-78
2023/12/06 07:28:19;;;;;;;0.10;0.10;;;1.80;99.90;;;;;;5017321;28;20526;-79
2023/12/06 07:30:44;;;;;;;0.10;0.10;;;1.80;99.90;;;;;;5025985;28;20041;-79
2023/12/06 07:33:11;;;;;;;0.10;0.10;;;1.90;99.90;;;;;;5014042;28;20088;-79
2023/12/06 07:35:37;;;;;;;0.10;0.10;;;2.00;99.90;;;;;;5026049;28;20037;-79
2023/12/06 07:38:04;;;;;;;0.10;0.10;;;2.10;99.90;;;;;;5025177;28;20677;-79
2023/12/06 07:40:30;;;;;;;0.10;0.10;;;2.20;99.90;;;;;;5015420;28;20033;-78
2023/12/06 07:42:55;;;;;;;0.00;0.00;;;2.30;99.90;;;;;;5025693;28;20029;-79
2023/12/06 07:45:21;;;;;;;0.10;0.10;;;2.30;99.90;;;;;;5019269;28;20834;-79
2023/12/06 07:47:48;;;;;;;0.35;0.35;;;2.30;99.90;;;;;;5011203;28;20382;-79
2023/12/06 07:50:13;;;;;;;0.10;0.10;;;2.40;99.90;;;;;;5009345;28;20033;-79
2023/12/06 07:52:39;;;;;;;0.20;0.20;;;2.50;99.90;;;;;;5012383;28;20397;-79
2023/12/06 07:55:06;;;;;;;0.10;0.10;;;2.60;99.90;;;;;;5024466;28;20488;-78
2023/12/06 07:57:33;;;;;;;0.25;0.25;;;2.60;99.90;;;;;;5025765;28;20022;-79
2023/12/06 07:59:59;;;;;;;0.10;0.10;;;2.70;99.90;;;;;;5020342;28;20054;-79
2023/12/06 08:02:25;;;;;;;0.10;0.10;;;2.70;99.90;;;;;;5022783;28;20029;-79
2023/12/06 08:04:51;;;;;;;0.52;0.52;;;2.70;99.90;;;;;;5023542;28;20175;-79
2023/12/06 08:07:17;;;;;;;0.10;0.10;;;2.70;99.90;;;;;;5023611;28;20050;-79
2023/12/06 08:09:42;;;;;;;0.10;0.10;;;2.70;99.90;;;;;;5020787;28;20038;-78
2023/12/06 08:12:08;;;;;;;0.10;0.10;;;2.70;99.90;;;;;;5022893;28;20026;-79
2023/12/06 08:14:34;;;;;;;0.10;0.10;;;2.80;99.90;;;;;;5013896;28;20038;-79
2023/12/06 08:17:00;;;;;;;0.10;0.10;;;2.90;99.90;;;;;;5023148;28;20793;-79
2023/12/06 08:19:26;;;;;;;0.10;0.10;;;2.90;99.90;;;;;;5021784;28;20057;-79
2023/12/06 08:21:52;;;;;;;0.10;0.10;;;2.90;99.90;;;;;;5017237;28;20032;-79
2023/12/06 08:24:18;;;;;;;0.10;0.10;;;3.10;99.90;;;;;;5024937;28;20121;-79
2023/12/06 08:26:43;;;;;;;0.10;0.10;;;3.00;99.90;;;;;;5022649;28;20032;-79
2023/12/06 08:29:09;;;;;;;0.10;0.10;;;3.10;99.90;;;;;;5024952;28;20034;-79
2023/12/06 08:31:37;;;;;;;0.30;0.30;;;3.20;99.90;;;;;;5025217;28;20021;-79
2023/12/06 08:34:03;;;;;;;0.10;0.10;;;3.50;99.90;;;;;;5018450;28;20413;-79
2023/12/06 08:36:28;;;;;;;0.10;0.10;;;3.60;99.90;;;;;;5024932;28;20025;-79
2023/12/06 08:38:54;;;;;;;0.10;0.10;;;3.90;99.90;;;;;;5024811;28;20546;-79
2023/12/06 08:41:21;;;;;;;0.10;0.10;;;3.90;99.90;;;;;;5024543;28;20029;-79
2023/12/06 08:43:47;;;;;;;0.10;0.10;;;4.10;99.90;;;;;;5024843;28;20128;-79
2023/12/06 08:46:12;;;;;;;0.65;0.52;;;4.10;99.90;;;;;;5023959;28;20030;-79
2023/12/06 08:48:38;;;;;;;0.10;0.10;;;4.00;99.90;;;;;;5024386;28;20022;-79
2023/12/06 08:51:04;;;;;;;0.10;0.10;;;4.00;99.90;;;;;;5022885;28;20021;-79
2023/12/06 08:53:30;;;;;;;0.10;0.10;;;4.00;99.90;;;;;;5024769;28;20032;-79
2023/12/06 08:55:56;;;;;;;0.10;0.10;;;3.90;99.90;;;;;;5021096;28;20143;-79
2023/12/06 08:58:23;;;;;;;0.10;0.10;;;3.80;99.90;;;;;;5023904;28;20119;-79
2023/12/06 09:00:48;;;;;;;0.10;0.10;;;3.90;99.90;;;;;;5024170;28;20407;-79
2023/12/06 09:03:14;;;;;;;0.10;0.10;;;4.00;99.90;;;;;;5023942;28;20055;-79
2023/12/06 09:05:40;;;;;;;0.10;0.10;;;3.90;99.90;;;;;;5028144;28;20033;-79
2023/12/06 09:08:06;;;;;;;0.55;0.55;;;3.70;99.90;;;;;;5022565;28;20143;-79
2023/12/06 09:10:32;;;;;;;0.10;0.10;;;3.80;99.90;;;;;;5024165;28;20068;-79
2023/12/06 09:12:58;;;;;;;0.30;0.28;;;3.80;99.90;;;;;;5024378;28;20124;-79
2023/12/06 09:15:23;;;;;;;0.10;0.10;;;3.70;99.90;;;;;;5023644;28;20057;-79
2023/12/06 09:17:49;;;;;;;0.10;0.10;;;3.90;99.90;;;;;;5024041;28;20056;-79
2023/12/06 09:20:17;;;;;;;0.10;0.10;;;4.10;99.90;;;;;;5024334;28;20091;-79
2023/12/06 09:22:43;;;;;;;0.10;0.10;;;4.00;99.90;;;;;;5029954;28;20056;-79
2023/12/06 09:25:09;;;;;;;0.10;0.10;;;4.10;99.90;;;;;;5023841;28;20116;-79
2023/12/06 09:27:34;;;;;;;0.10;0.10;;;4.20;99.90;;;;;;5024176;28;20497;-79
2023/12/06 09:30:00;;;;;;;0.10;0.10;;;4.30;99.90;;;;;;5023851;28;20037;-79
2023/12/06 09:32:26;;;;;;;0.10;0.10;;;4.40;99.90;;;;;;5024366;28;20030;-79
2023/12/06 09:34:52;;;;;;;0.10;0.10;;;4.30;99.90;;;;;;5023746;28;20029;-79
2023/12/06 09:37:18;;;;;;;0.10;0.10;;;4.30;99.90;;;;;;5023706;28;20026;-79
2023/12/06 09:39:44;;;;;;;0.28;0.28;;;4.10;99.90;;;;;;5023713;28;20044;-79
2023/12/06 09:42:12;;;;;;;0.10;0.10;;;4.00;99.90;;;;;;5023632;28;20037;-79
2023/12/06 09:44:39;;;;;;;0.10;0.10;;;4.10;99.90;;;;;;5023698;28;20029;-79
2023/12/06 09:47:05;;;;;;;0.20;0.20;;;4.20;99.90;;;;;;5024251;28;20029;-79
2023/12/06 09:49:31;;;;;;;0.10;0.10;;;4.30;99.90;;;;;;5023936;28;20706;-79
2023/12/06 09:52:07;;;;;;;0.10;0.10;;;4.20;99.90;;;;;;5023683;28;20057;-79
2023/12/06 09:54:32;;;;;;;0.30;0.30;;;4.40;99.90;;;;;;5020375;28;20021;-79
2023/12/06 09:56:58;;;;;;;0.10;0.10;;;4.50;99.90;;;;;;5022854;28;20030;-79
2023/12/06 09:59:24;;;;;;;0.10;0.10;;;4.90;99.90;;;;;;5024948;28;20053;-79
2023/12/06 10:01:49;;;;;;;0.10;0.10;;;5.00;99.90;;;;;;5023584;28;20064;-79
2023/12/06 10:04:15;;;;;;;0.10;0.10;;;5.00;99.90;;;;;;5024594;28;20040;-79
2023/12/06 10:06:42;;;;;;;0.10;0.10;;;5.00;99.90;;;;;;5022879;28;20068;-79
2023/12/06 10:09:10;;;;;;;0.10;0.10;;;5.10;99.90;;;;;;5023040;28;20504;-79
2023/12/06 10:11:36;;;;;;;0.10;0.10;;;5.10;99.90;;;;;;5023271;28;20064;-79
2023/12/06 10:14:02;;;;;;;0.10;0.10;;;5.10;99.90;;;;;;5022841;28;20116;-79
2023/12/06 10:16:28;;;;;;;0.10;0.10;;;5.30;99.90;;;;;;5029338;28;20556;-79
2023/12/06 10:18:54;;;;;;;0.87;0.80;;;4.90;99.90;;;;;;5021752;28;20029;-79
2023/12/06 10:21:20;;;;;;;0.10;0.10;;;5.10;99.90;;;;;;5022673;28;20818;-79
2023/12/06 10:23:57;;;;;;;0.10;0.10;;;5.70;99.90;;;;;;5021463;28;20056;-79
2023/12/06 10:26:26;;;;;;;0.10;0.10;;;6.20;99.90;;;;;;5025706;28;20786;-79
2023/12/06 10:28:53;;;;;;;0.10;0.10;;;6.50;99.90;;;;;;5021297;28;20289;-79
2023/12/06 10:31:19;;;;;;;0.45;0.45;;;6.70;99.90;;;;;;5022846;28;20034;-79
2023/12/06 10:33:46;;;;;;;0.10;0.10;;;5.90;99.90;;;;;;5022751;28;20029;-79
2023/12/06 10:36:12;;;;;;;;;;;5.70;99.90;;;;;;5022617;28;20600;-79
2023/12/06 10:38:42;;;;;;;0.10;0.10;;;5.30;99.90;;;;;;5022630;28;19920;-79
2023/12/06 10:41:11;;;;;;;0.75;0.75;;;4.80;99.90;;;;;;5022843;28;20037;-79
2023/12/06 10:43:38;;;;;;;0.10;0.10;;;4.40;99.90;;;;;;5022650;28;20029;-79
2023/12/06 10:46:04;;;;;;;0.10;0.10;;;4.30;99.90;;;;;;5021870;28;20057;-79
2023/12/06 10:48:31;;;;;;;0.10;0.10;;;4.20;99.90;;;;;;5022628;28;20053;-79
2023/12/06 10:50:57;;;;;;;0.10;0.10;;;4.10;99.90;;;;;;5017455;28;20037;-79
2023/12/06 10:53:23;;;;;;;0.10;0.10;;;4.00;99.90;;;;;;5021518;28;20422;-79
2023/12/06 10:55:48;;;;;;;0.10;0.10;;;4.30;99.90;;;;;;5019325;28;20099;-79
2023/12/06 10:58:15;;;;;;;0.10;0.10;;;4.70;99.90;;;;;;5020692;28;20096;-79
2023/12/06 11:00:42;;;;;;;;;;;4.90;99.90;;;;;;5022619;28;20895;-78
2023/12/06 11:03:09;;;;;;;0.10;0.10;;;5.30;99.90;;;;;;5022693;28;20775;-78
2023/12/06 11:05:44;;;;;;;;;;;5.50;99.90;;;;;;5022646;28;20382;-79
2023/12/06 11:08:31;;;;;;;0.10;0.10;;;5.60;99.90;;;;;;5022347;28;20401;-78
2023/12/06 11:11:03;;;;;;;0.10;0.10;;;5.90;99.90;;;;;;5022244;28;20017;-79
2023/12/06 11:13:39;;;;;;;0.10;0.10;;;6.00;99.90;;;;;;5022302;28;20034;-79
2023/12/06 11:16:16;;;;;;;0.47;0.47;;;6.00;99.90;;;;;;5021861;28;20022;-79
2023/12/06 11:18:47;;;;;;;0.10;0.10;;;6.20;99.90;;;;;;5022064;28;20568;-78
2023/12/06 11:21:13;;;;;;;0.10;0.10;;;6.50;99.90;;;;;;5022144;28;20037;-78
2023/12/06 11:23:40;;;;;;;0.28;0.28;;;7.10;99.90;;;;;;5022127;28;20033;-79
2023/12/06 11:26:05;;;;;;;0.10;0.10;;;7.20;99.90;;;;;;5019579;28;20021;-79
2023/12/06 11:28:40;;;;;;;0.10;0.10;;;7.10;99.90;;;;;;5022528;28;20033;-79
2023/12/06 11:31:07;;;;;;;0.10;0.10;;;6.70;99.90;;;;;;5022167;28;20200;-79
2023/12/06 11:33:36;;;;;;;0.10;0.10;;;6.60;99.90;;;;;;5022194;28;20114;-79
2023/12/06 11:36:02;;;;;;;0.30;0.30;;;6.60;99.90;;;;;;5021546;28;20038;-79
2023/12/06 11:38:37;;;;;;;0.10;0.10;;;6.30;99.90;;;;;;5022868;28;20030;-79
2023/12/06 11:41:05;;;;;;;0.10;0.10;;;6.30;99.90;;;;;;5022222;28;20032;-79
2023/12/06 11:43:33;;;;;;;0.10;0.10;;;6.20;99.90;;;;;;5021822;28;20132;-79
2023/12/06 11:46:09;;;;;;;0.10;0.10;;;6.40;99.90;;;;;;5021994;28;20075;-79
2023/12/06 11:48:43;;;;;;;0.10;0.10;;;6.40;99.90;;;;;;5022297;28;20025;-79
2023/12/06 11:51:19;;;;;;;0.10;0.10;;;6.40;99.90;;;;;;5021927;28;20571;-79
2023/12/06 11:53:46;;;;;;;0.10;0.10;;;6.20;99.90;;;;;;5021994;28;20032;-79
2023/12/06 11:56:11;;;;;;;0.10;0.10;;;6.20;99.90;;;;;;5018466;28;20052;-79
2023/12/06 11:58:38;;;;;;;0.10;0.10;;;6.50;99.90;;;;;;5020640;28;20571;-79
2023/12/06 12:01:04;;;;;;;0.10;0.10;;;6.40;99.90;;;;;;5020719;28;20025;-79
2023/12/06 12:03:35;;;;;;;0.10;0.10;;;6.40;99.90;;;;;;5022100;28;20133;-79
2023/12/06 12:06:01;;;;;;;0.10;0.10;;;6.70;99.90;;;;;;5024321;28;20156;-79
2023/12/06 12:08:28;;;;;;;0.10;0.10;;;6.70;99.90;;;;;;5025177;28;20489;-79
2023/12/06 12:10:54;;;;;;;0.10;0.10;;;6.30;99.90;;;;;;5025461;28;20022;-79
2023/12/06 12:13:22;;;;;;;0.13;0.13;;;6.00;99.90;;;;;;5025851;28;20060;-79
2023/12/06 12:16:03;;;;;;;0.10;0.10;;;5.90;99.90;;;;;;5030109;28;20830;-79
2023/12/06 12:18:29;;;;;;;0.10;0.10;;;6.00;99.90;;;;;;5020911;28;20547;-78
2023/12/06 12:20:58;;;;;;;0.10;0.10;;;5.80;99.90;;;;;;5026282;28;20018;-79
2023/12/06 12:23:24;;;;;;;0.10;0.10;;;5.50;99.90;;;;;;5020955;28;20026;-78
2023/12/06 12:25:50;;;;;;;0.10;0.10;;;5.40;99.90;;;;;;5020981;28;20079;-79
2023/12/06 12:28:17;;;;;;;0.10;0.10;;;5.30;99.90;;;;;;5024967;28;20527;-79
2023/12/06 12:30:43;;;;;;;0.10;0.10;;;5.30;99.90;;;;;;5018384;28;20026;-78
2023/12/06 12:33:10;;;;;;;0.10;0.10;;;5.50;99.90;;;;;;5023924;28;20029;-79
2023/12/06 12:35:36;;;;;;;0.10;0.10;;;5.50;99.90;;;;;;5024553;28;20021;-79
2023/12/06 12:38:03;;;;;;;0.10;0.10;;;5.60;99.90;;;;;;5024508;28;20111;-79
2023/12/06 12:40:29;;;;;;;0.10;0.10;;;5.70;99.90;;;;;;5024955;28;20096;-79
2023/12/06 12:42:55;;;;;;;0.10;0.10;;;5.60;99.90;;;;;;5024933;28;20044;-79
2023/12/06 12:45:21;;;;;;;0.10;0.10;;;5.30;99.90;;;;;;5024436;28;20033;-78
2023/12/06 12:47:47;;;;;;;0.10;0.10;;;5.20;99.90;;;;;;5024532;28;20148;-79
2023/12/06 12:50:22;;;;;;;0.10;0.10;;;5.10;99.90;;;;;;5025072;28;20515;-78
2023/12/06 12:52:53;;;;;;;0.10;0.10;;;5.20;99.90;;;;;;5027144;28;20057;-78
2023/12/06 12:55:19;;;;;;;0.10;0.10;;;5.30;99.90;;;;;;5021819;28;20787;-79
2023/12/06 12:57:46;;;;;;;0.10;0.10;;;5.30;99.90;;;;;;5024163;28;20036;-79
2023/12/06 13:00:22;;;;;;;0.15;0.15;;;5.30;99.90;;;;;;5023876;28;20049;-78
2023/12/06 13:02:55;;;;;;;0.10;0.10;;;4.90;99.90;;;;;;5024692;28;20037;-79
2023/12/06 13:05:22;;;;;;;0.10;0.10;;;4.70;99.90;;;;;;5024120;28;20076;-78
2023/12/06 13:07:52;;;;;;;0.10;0.10;;;4.60;99.90;;;;;;5027164;28;20088;-78
2023/12/06 13:10:18;;;;;;;0.10;0.10;;;4.50;99.90;;;;;;5024342;28;20029;-79
2023/12/06 13:12:44;;;;;;;0.10;0.10;;;4.60;99.90;;;;;;5023133;28;20029;-78
2023/12/06 13:15:10;;;;;;;0.10;0.10;;;4.60;99.90;;;;;;5029953;28;20500;-78
2023/12/06 13:17:37;;;;;;;0.10;0.10;;;4.70;99.90;;;;;;5023538;28;20025;-78
2023/12/06 13:20:05;;;;;;;0.35;0.35;;;4.60;99.90;;;;;;5024193;28;20028;-78
2023/12/06 13:22:31;;;;;;;0.20;0.20;;;4.40;99.90;;;;;;5024292;28;20782;-79
2023/12/06 13:24:57;;;;;;;0.10;0.10;;;4.40;99.90;;;;;;5020016;28;20076;-79
2023/12/06 13:27:23;;;;;;;0.30;0.30;;;4.60;99.90;;;;;;5024125;28;20021;-79
2023/12/06 13:29:48;;;;;;;0.10;0.10;;;4.60;99.90;;;;;;5024233;28;20385;-79
2023/12/06 13:32:14;;;;;;;0.10;0.10;;;4.80;99.90;;;;;;5024143;28;20067;-79
2023/12/06 13:34:40;;;;;;;0.10;0.10;;;4.80;99.90;;;;;;5023863;28;20028;-79
2023/12/06 13:37:06;;;;;;;0.10;0.10;;;4.80;99.90;;;;;;5024048;28;20033;-79
2023/12/06 13:39:32;;;;;;;0.10;0.10;;;4.70;99.90;;;;;;5022360;28;20584;-79
2023/12/06 13:41:58;;;;;;;0.10;0.10;;;4.70;99.90;;;;;;5027616;28;20029;-79
2023/12/06 13:44:24;;;;;;;0.10;0.10;;;4.90;99.90;;;;;;5021646;28;20041;-79
2023/12/06 13:46:50;;;;;;;0.10;0.10;;;4.90;99.90;;;;;;5024292;28;20085;-79
2023/12/06 13:49:18;;;;;;;0.38;0.38;;;4.80;99.90;;;;;;5023351;28;20031;-79
2023/12/06 13:51:45;;;;;;;0.10;0.10;;;4.80;99.90;;;;;;5023225;28;20033;-79
2023/12/06 13:54:10;;;;;;;0.20;0.20;;;4.80;99.90;;;;;;5019486;28;20529;-78
2023/12/06 13:56:36;;;;;;;0.10;0.10;;;4.80;99.90;;;;;;5020744;28;20037;-79
2023/12/06 13:59:03;;;;;;;0.10;0.10;;;4.80;99.90;;;;;;5028517;28;20056;-79
2023/12/06 14:01:29;;;;;;;0.20;0.20;;;4.80;99.90;;;;;;5023429;28;20030;-79
2023/12/06 14:03:56;;;;;;;0.10;0.10;;;4.80;99.90;;;;;;5023367;28;20068;-79
2023/12/06 14:06:25;;;;;;;0.10;0.10;;;4.70;99.90;;;;;;5023221;28;20022;-78
2023/12/06 14:08:51;;;;;;;0.10;0.10;;;4.70;99.90;;;;;;5023060;28;20033;-79
2023/12/06 14:11:17;;;;;;;0.10;0.10;;;4.70;99.90;;;;;;5023379;28;20077;-79
2023/12/06 14:13:42;;;;;;;0.30;0.30;;;4.70;99.90;;;;;;5023037;28;20558;-78
2023/12/06 14:16:08;;;;;;;0.10;0.10;;;4.70;99.90;;;;;;5023192;28;20268;-79
2023/12/06 14:18:34;;;;;;;0.10;0.10;;;4.70;99.90;;;;;;5023107;28;20025;-78
2023/12/06 14:21:00;;;;;;;0.10;0.10;;;4.60;99.90;;;;;;5022852;28;20022;-78
2023/12/06 14:23:27;;;;;;;0.10;0.10;;;4.70;99.90;;;;;;5022971;28;20552;-78
2023/12/06 14:25:53;;;;;;;0.30;0.30;;;4.50;99.90;;;;;;5018800;28;20080;-79
2023/12/06 14:28:19;;;;;;;0.17;0.17;;;4.50;99.90;;;;;;5023120;28;20037;-78
2023/12/06 14:30:45;;;;;;;0.17;0.17;;;4.50;99.90;;;;;;5023100;28;20030;-79
2023/12/06 14:33:12;;;;;;;0.10;0.10;;;4.50;99.90;;;;;;5022880;28;20279;-79
2023/12/06 14:35:37;;;;;;;0.10;0.10;;;4.40;99.90;;;;;;5021948;28;20037;-79
2023/12/06 14:38:04;;;;;;;0.10;0.10;;;4.40;99.90;;;;;;5022213;28;20334;-78
2023/12/06 14:40:31;;;;;;;0.10;0.10;;;4.40;99.90;;;;;;5022427;28;20073;-78
2023/12/06 14:42:57;;;;;;;0.10;0.10;;;4.50;99.90;;;;;;5022746;28;20047;-78
2023/12/06 14:45:22;;;;;;;0.10;0.10;;;4.40;99.90;;;;;;5022517;28;20033;-79
2023/12/06 14:47:49;;;;;;;0.10;0.10;;;4.40;99.90;;;;;;5022663;28;20064;-79
2023/12/06 14:50:15;;;;;;;0.10;0.10;;;4.30;99.90;;;;;;5022861;28;20021;-79
2023/12/06 14:52:41;;;;;;;0.10;0.10;;;4.30;99.90;;;;;;5021684;28;20045;-79
2023/12/06 14:55:07;;;;;;;0.10;0.10;;;4.30;99.90;;;;;;5019475;28;20040;-79
2023/12/06 14:57:33;;;;;;;0.10;0.10;;;4.20;99.90;;;;;;5022624;28;20049;-79
2023/12/06 14:59:59;;;;;;;0.10;0.10;;;4.20;99.90;;;;;;5021639;28;20084;-79
2023/12/06 15:02:25;;;;;;;0.10;0.10;;;4.10;99.90;;;;;;5020873;28;20539;-78
2023/12/06 15:04:51;;;;;;;0.10;0.10;;;4.00;99.90;;;;;;5022123;28;20045;-79
2023/12/06 15:07:16;;;;;;;0.10;0.10;;;4.00;99.90;;;;;;5021890;28;20022;-79
2023/12/06 15:09:42;;;;;;;0.10;0.10;;;4.00;99.90;;;;;;5023639;28;20041;-79
2023/12/06 15:12:08;;;;;;;0.10;0.10;;;3.90;99.90;;;;;;5026931;28;20029;-79
2023/12/06 15:14:33;;;;;;;0.28;0.28;;;3.90;99.90;;;;;;5021992;28;20481;-79
2023/12/06 15:16:59;;;;;;;0.20;0.20;;;3.90;99.90;;;;;;5022198;28;20033;-78
2023/12/06 15:19:25;;;;;;;0.38;0.38;;;3.90;99.90;;;;;;5022572;28;20025;-79
2023/12/06 15:21:51;;;;;;;0.10;0.10;;;3.80;99.90;;;;;;5021856;28;20034;-79
2023/12/06 15:24:16;;;;;;;0.10;0.10;;;3.80;99.90;;;;;;5021459;28;20484;-79
2023/12/06 15:26:42;;;;;;;2.03;1.88;;;3.70;99.90;;;;;;5018031;28;20459;-79
2023/12/06 15:29:08;;;;;;;0.20;0.20;;;3.60;99.90;;;;;;5022230;28;20544;-78
2023/12/06 15:31:33;;;;;;;0.10;0.10;;;3.60;99.90;;;;;;5022240;28;20798;-78
2023/12/06 15:33:59;;;;;;;0.10;0.10;;;3.50;99.90;;;;;;5021966;28;20038;-78
2023/12/06 15:36:25;;;;;;;0.10;0.10;;;3.60;99.90;;;;;;5021922;28;20731;-79
2023/12/06 15:38:50;;;;;;;0.10;0.10;;;3.60;99.90;;;;;;5022311;28;20075;-78
2023/12/06 15:41:16;;;;;;;0.10;0.10;;;3.50;99.90;;;;;;5025219;28;20068;-79
2023/12/06 15:43:41;;;;;;;0.10;0.10;;;3.40;99.90;;;;;;5025877;28;20037;-79
2023/12/06 15:46:08;;;;;;;0.10;0.10;;;3.30;99.90;;;;;;5026028;28;20030;-79
2023/12/06 15:48:35;;;;;;;0.10;0.10;;;3.50;99.90;;;;;;5029353;28;20030;-78
2023/12/06 15:51:01;;;;;;;0.10;0.10;;;3.40;99.90;;;;;;5025818;28;20025;-78
2023/12/06 15:53:27;;;;;;;0.10;0.10;;;3.30;99.90;;;;;;5026213;28;20038;-78
2023/12/06 15:55:52;;;;;;;0.10;0.10;;;3.30;99.90;;;;;;5023124;28;20695;-78
2023/12/06 15:58:19;;;;;;;0.10;0.10;;;3.10;99.90;;;;;;5025936;28;20050;-78
2023/12/06 16:00:45;;;;;;;0.10;0.10;;;3.10;99.90;;;;;;5026171;28;20032;-78
2023/12/06 16:03:10;;;;;;;0.10;0.10;;;3.20;99.90;;;;;;5025498;28;20569;-78
2023/12/06 16:05:36;;;;;;;0.10;0.10;;;3.20;99.90;;;;;;5025598;28;20964;-78
2023/12/06 16:08:02;;;;;;;0.22;0.22;;;3.10;99.90;;;;;;5025301;28;20132;-79
2023/12/06 16:10:28;;;;;;;0.73;0.73;;;3.00;99.90;;;;;;5023902;28;20029;-79
2023/12/06 16:12:54;;;;;;;0.10;0.10;;;2.90;99.90;;;;;;5025895;28;20348;-79
2023/12/06 16:15:20;;;;;;;0.20;0.20;;;2.90;99.90;;;;;;5025581;28;20583;-78
2023/12/06 16:17:45;;;;;;;0.10;0.10;;;2.90;99.90;;;;;;5025769;28;20030;-78
2023/12/06 16:20:12;;;;;;;0.10;0.10;;;2.80;99.90;;;;;;5025661;28;20036;-79
2023/12/06 16:22:38;;;;;;;0.10;0.10;;;2.70;99.90;;;;;;5025452;28;20088;-78
2023/12/06 16:25:05;;;;;;;0.10;0.10;;;2.70;99.90;;;;;;5021792;28;20473;-78
2023/12/06 16:27:31;;;;;;;0.17;0.17;;;2.70;99.90;;;;;;5025598;28;20028;-78
2023/12/06 16:29:57;;;;;;;0.15;0.15;;;2.60;99.90;;;;;;5024575;28;20034;-79
2023/12/06 16:32:22;;;;;;;0.28;0.28;;;2.50;99.90;;;;;;5024829;28;20056;-78
2023/12/06 16:34:50;;;;;;;0.08;0.08;;;2.50;99.90;;;;;;5024398;28;20038;-78
2023/12/06 16:37:18;;;;;;;0.10;0.10;;;2.50;99.90;;;;;;5025017;28;20061;-79
2023/12/06 16:39:46;;;;;;;0.20;0.20;;;2.40;99.90;;;;;;5026834;28;20017;-78
2023/12/06 16:42:12;;;;;;;0.10;0.10;;;2.40;99.90;;;;;;5025639;28;20957;-78
2023/12/06 16:44:43;;;;;;;0.10;0.10;;;2.40;99.90;;;;;;5026163;28;20040;-78
2023/12/06 16:47:09;;;;;;;0.73;0.73;;;2.40;99.90;;;;;;5027599;28;20105;-79
2023/12/06 16:49:35;;;;;;;0.10;0.10;;;2.40;99.90;;;;;;5022824;28;20036;-79
2023/12/06 16:52:00;;;;;;;4.30;2.60;;;2.50;99.90;;;;;;5024407;28;20027;-78
2023/12/06 16:54:26;;;;;;;1.73;0.47;;;2.60;99.90;;;;;;5022265;28;20021;-78
2023/12/06 16:56:51;;;;;;;0.57;0.57;;;2.60;99.90;;;;;;5023269;28;20033;-78
2023/12/06 16:59:17;;;;;;;0.10;0.10;;;2.60;99.90;;;;;;5024044;28;20068;-78
2023/12/06 17:01:43;;;;;;;0.10;0.10;;;2.50;99.90;;;;;;5024452;28;20760;-78
2023/12/06 17:04:08;;;;;;;0.10;0.10;;;2.60;99.90;;;;;;5024506;28;20037;-78
2023/12/06 17:06:34;;;;;;;0.10;0.10;;;2.50;99.90;;;;;;5024376;28;20030;-79
2023/12/06 17:09:00;;;;;;;0.10;0.10;;;2.50;99.90;;;;;;5024259;28;20827;-79
2023/12/06 17:11:25;;;;;;;0.10;0.10;;;2.60;99.90;;;;;;5024332;28;20025;-78
2023/12/06 17:13:51;;;;;;;0.10;0.10;;;2.60;99.90;;;;;;5024318;28;20056;-79
2023/12/06 17:16:17;;;;;;;0.20;0.20;;;2.60;99.90;;;;;;5024196;28;20036;-78
2023/12/06 17:18:43;;;;;;;0.10;0.10;;;2.60;99.90;;;;;;5023942;28;20021;-78
2023/12/06 17:21:10;;;;;;;0.10;0.10;;;2.50;99.90;;;;;;5024321;28;20032;-78
2023/12/06 17:23:36;;;;;;;0.10;0.10;;;2.50;99.90;;;;;;5024344;28;20060;-80
2023/12/06 17:26:02;;;;;;;0.10;0.10;;;2.50;99.90;;;;;;5020194;28;20545;-78
2023/12/06 17:28:28;;;;;;;0.10;0.10;;;2.40;99.90;;;;;;5022310;28;20146;-79
2023/12/06 17:30:53;;;;;;;0.10;0.10;;;2.30;99.90;;;;;;5024264;28;20040;-79
2023/12/06 17:33:19;;;;;;;1.38;1.35;;;2.20;99.90;;;;;;5024252;28;20025;-78
2023/12/06 17:35:44;;;;;;;0.20;0.20;;;2.20;99.90;;;;;;5024117;28;20080;-79
2023/12/06 17:38:10;;;;;;;0.10;0.10;;;2.20;99.90;;;;;;5023690;28;20405;-81
2023/12/06 17:40:36;;;;;;;0.10;0.10;;;2.20;99.90;;;;;;5022596;28;20029;-79
2023/12/06 17:43:02;;;;;;;0.10;0.10;;;2.30;99.90;;;;;;5023468;28;20025;-78
2023/12/06 17:45:28;;;;;;;0.20;0.20;;;2.20;99.90;;;;;;5022497;28;20531;-80
2023/12/06 17:47:54;;;;;;;0.10;0.10;;;2.20;99.90;;;;;;5023602;28;20037;-80
2023/12/06 17:50:20;;;;;;;0.10;0.10;;;2.30;99.90;;;;;;5024112;28;20602;-82
2023/12/06 17:52:46;;;;;;;0.10;0.10;;;2.20;99.90;;;;;;5023932;28;20096;-80